Date,TemperatureHighF,TemperatureAvgF,TemperatureLowF,DewpointHighF,DewpointAvgF,DewpointLowF,HumidityHigh,HumidityAvg,HumidityLow,PressureMaxIn,PressureMinIn,WindSpeedMaxMPH,WindSpeedAvgMPH,GustSpeedMaxMPH,PrecipitationSumIn
2013-9-1,91,78,71,88,78,71,100,98,88,29.63,29.55,3,0,14,0.27
2013-9-4,82,72,67,76,72,67,100,97,84,29.83,29.74,1,0,3,0.00
2013-9-5,89,73,62,80,70,62,99,91,63,29.87,29.79,4,1,8,0.00
2013-9-6,96,74,60,80,70,60,100,91,57,29.88,29.76,3,0,8,0.00
2013-9-7,92,74,61,82,72,60,100,93,66,29.84,29.70,2,0,8,0.00
2013-9-8,95,77,64,83,74,64,100,91,62,29.74,29.65,2,0,8,0.00
2013-9-9,96,78,67,84,76,67,99,93,67,29.81,29.71,2,0,10,0.00
2013-9-10,97,80,68,83,76,67,100,90,59,29.93,29.81,2,0,7,0.00
2013-9-11,97,80,69,85,77,69,99,92,64,29.94,29.79,2,0,6,0.00
2013-9-12,92,77,69,88,76,69,100,98,79,29.81,29.61,1,0,8,0.11
2013-9-13,85,72,58,77,68,58,100,88,55,29.68,29.57,6,1,13,0.00
2013-9-14,85,65,50,67,60,50,100,88,54,29.77,29.66,5,1,11,0.00
2013-9-15,91,69,55,76,65,55,100,89,60,29.86,29.77,2,0,9,0.00
2013-9-16,91,72,59,78,68,59,100,88,54,29.87,29.78,2,0,9,0.00
2013-9-17,83,72,62,77,69,62,100,93,80,29.91,29.82,3,0,8,0.00
2013-9-18,85,72,66,75,69,65,100,89,73,29.93,29.81,2,0,11,0.00
2013-9-19,91,72,60,79,69,59,99,93,66,29.90,29.75,2,0,6,0.00
2013-9-20,92,74,61,78,70,60,99,90,62,29.78,29.59,2,0,8,0.00
2013-9-21,76,69,63,76,69,63,100,99,99,29.60,29.47,4,0,13,1.61
2013-9-22,81,65,54,69,62,54,100,92,62,29.62,29.53,4,1,17,0.00
2013-9-23,88,66,54,75,64,54,99,92,63,29.72,29.62,3,0,6,0.00
2013-9-24,77,66,57,75,66,57,100,98,91,29.75,29.59,2,0,8,0.01
2013-9-25,72,70,66,72,70,66,99,99,99,29.59,29.53,1,0,5,0.78